Atlantic - Newfoundland: Past 24 Hour Conditions

 

Wreckhouse

03:30 PM NDT 02 September 2014
This table is a summary of hourly weather conditions for the past 24 hours.
Date / Time
(NDT)
Wind(knots) Conditions Visibility(km) Pressure(kPa) Air tempC) Relative humidity(%) Dew pointC) Humidex
02 September 2014
15:30 SE 14 gust 27 N/A N/A 101.6 18 81 15 *
14:30 SE 15 gust 22 N/A N/A 101.6 18 82 15 *
13:30 SE 20 gust 28 N/A N/A 101.6 18 81 14 *
12:30 SE 17 gust 28 N/A N/A 101.7 18 81 15 *
11:30 ESE 9 gust 26 N/A N/A 101.7 18 82 15 *
10:30 ESE 15 gust 30 N/A N/A 101.6 19 79 15 *
9:30 ESE 21 gust 28 N/A N/A 101.6 18 82 15 *
8:30 E 16 gust 21 N/A N/A 101.7 18 79 15 *
7:30 ESE 16 gust 22 N/A N/A 101.7 17 86 15 *
6:30 ESE 11 N/A N/A 101.7 17 88 15 *
5:30 ESE 8 N/A N/A 101.7 16 89 14 *
4:30 SE 4 N/A N/A 101.7 14 89 12 *
3:30 ENE 2 N/A N/A 101.7 13 89 11 *
2:30 ENE 6 N/A N/A 101.7 12 85 9 *
1:30 calm N/A N/A 101.6 13 88 11 *
0:30 ESE 3 N/A N/A 101.6 12 88 10 *
01 September 2014
23:30 ENE 4 N/A N/A 101.6 12 83 10 *
22:30 NE 5 N/A N/A 101.6 13 78 10 *
21:30 NNE 13 N/A N/A 101.6 16 67 9 *
20:30 NNE 9 N/A N/A 101.5 16 71 11 *
19:30 N 8 N/A N/A 101.5 19 65 12 *
18:30 NNW 12 gust 17 N/A N/A 101.4 19 78 15 *
17:30 NNW 10 gust 15 N/A N/A 101.4 21 69 15 25
16:30 N 10 N/A N/A 101.4 23 45 11 25
15:30 NW 10 N/A N/A 101.4 20 78 17 25
 
Map of Atlantic - Newfoundland marine weather areas Southwestern Grand Banks - 44138 Banquereau - 44139 Tail of the Bank - 44140 Nickerson Bank - 44251 Northeast Burgeo Bank - 44255 Blanc-Sablon Airport Cap Whittle Chevery Natashquan Airport Heath Point Miscou Island Grand Étang Ingonish Beach North Mountain St.Paul Island J.A. Douglas McCurdy Sydney Airport Charlottetown Airport East Point North Cape Argentia Bonavista Burgeo Cape Race Corner Brook Daniel's Harbour Englee Ferolle Point La Scie Port aux Basques Rocky Harbour Sagona Island St. Anthony Airport St. John's Int'l Airport St. Lawrence Stephenville Airport Twillingate Winterland Wreckhouse Cartwright Airport Mary's Harbour Grates Cove Pool's Island Marticot Island Long Pond Îles de la Madeleine Airport
Legend: buoyBuoy land stationLand Station